Página principal
METAR-TAF:

METAR-TAF

Aeroportos :

Granada, Espanha

Armilla

latitude: 37-08N, longitude: 003-38-08W, altura: 700 m

Observação actual do tempo

O boletim foi feito há 10 horas e 51 minutos, às 18:00 UTC
Vento 12 kt de norte
Temperatura 8°C
Humidade 39%
Pressão 1006 hPa
Visibilidade 10 km ou mais
Poucas nuvensa uma altura de 8000 ft

METAR: LEGA 211800Z 35012KT 9999 FEW080 08/M05 Q1006

Hora: 05:51 (04:51 UTC)

Previsão

O boletim foi feito há 14 horas e 51 minutos, às 14:00 UTC
Previsão válida de 21 às 15 UTC a 21 às 24 UTC
Vento 14 kt de nor-nordeste
Visibilidade 10 km ou mais
Poucas nuvensa uma altura de 3000 ft
Nuvens dispersasa uma altura de 6000 ft
Temporariamente
de 21 às 15 UTC a 21 às 18 UTC
Vento 15 kt de nor-nordeste com rajadas de 25 kt
Tornando-se
de 21 às 19 UTC a 21 às 22 UTC
Vento 6 kt de oes-noroeste

TAF: LEGA 211400Z 2115/2124 02014KT 9999 FEW030 SCT060 TEMPO 2115/2118 02015G25KT BECMG 2119/2122 29006KT

Observações e previsões do tempo de mais de 4000 aeroportos (mensagens METAR e TAF).

As estações disponíveis são os pontos amarelos e vermelhos sobre o mapa.

Mova o rato sobre o mapa para ver o nome da estação.

Depois clique no ponto para visualizar as observações e previsões meteorológicas.

Para alterar o mapa : clique nos botões verdes com uma cruz preta para aumentar o zoom; no botão verde com uma pitada de zoom; ou nas setas verdes para mapas adjacentes.


METAR-TAF: